createdAt,value
2022-12-31T00:00:11.264Z,31.27
2022-12-31T00:00:46.975Z,34.95
2022-12-31T00:01:19.970Z,27.85
2022-12-31T00:01:51.846Z,30.60
2022-12-31T00:02:23.940Z,33.17
2022-12-31T00:02:56.042Z,30.50
2022-12-31T00:03:28.185Z,32.63
2022-12-31T00:04:00.171Z,34.13
2022-12-31T00:04:32.049Z,31.62
2022-12-31T00:05:04.529Z,27.80
2022-12-31T00:05:37.147Z,36.45
2022-12-31T00:06:16.101Z,31.10
2022-12-31T00:06:48.239Z,34.05
2022-12-31T00:07:20.122Z,38.00
2022-12-31T00:07:52.064Z,39.35
2022-12-31T00:08:24.026Z,39.25
2022-12-31T00:08:58.143Z,36.33
2022-12-31T00:09:29.999Z,33.13
2022-12-31T00:10:02.770Z,36.00
2022-12-31T00:10:41.249Z,38.72
2022-12-31T00:11:14.231Z,37.35
2022-12-31T00:11:46.058Z,40.45
2022-12-31T00:12:17.925Z,34.72
2022-12-31T00:12:50.141Z,37.65
2022-12-31T00:13:22.027Z,39.78
2022-12-31T00:13:54.812Z,35.90
2022-12-31T00:14:26.698Z,42.45
2022-12-31T00:14:58.582Z,38.47
2022-12-31T00:15:30.757Z,41.30
2022-12-31T00:16:12.530Z,40.60
2022-12-31T00:16:44.852Z,36.40
2022-12-31T00:17:16.861Z,37.28
2022-12-31T00:17:48.862Z,38.92
2022-12-31T00:18:20.769Z,35.53
2022-12-31T00:18:55.449Z,37.10
2022-12-31T00:19:27.286Z,35.13
2022-12-31T00:19:59.111Z,34.75
2022-12-31T00:20:31.278Z,34.63
2022-12-31T00:21:10.087Z,35.28
2022-12-31T00:21:43.517Z,33.55
2022-12-31T00:22:15.697Z,32.97
2022-12-31T00:22:47.513Z,36.90
2022-12-31T00:23:19.349Z,35.65
2022-12-31T00:23:52.692Z,35.30
2022-12-31T00:24:24.584Z,35.55
2022-12-31T00:24:56.419Z,35.42
2022-12-31T00:25:28.325Z,34.45
2022-12-31T00:26:04.806Z,31.85
2022-12-31T00:26:36.760Z,33.58
2022-12-31T00:27:08.606Z,35.42
2022-12-31T00:27:40.729Z,30.23
2022-12-31T00:28:12.555Z,32.67
2022-12-31T00:28:45.137Z,32.30
2022-12-31T00:29:16.959Z,35.67
2022-12-31T00:29:48.779Z,33.30
2022-12-31T00:30:20.665Z,30.48
2022-12-31T00:30:52.577Z,33.65
2022-12-31T00:31:29.887Z,31.02
2022-12-31T00:32:01.745Z,25.67
2022-12-31T00:32:33.610Z,31.42
2022-12-31T00:33:05.754Z,30.02
2022-12-31T00:33:38.337Z,28.02
2022-12-31T00:34:10.171Z,27.33
2022-12-31T00:34:42.030Z,29.52
2022-12-31T00:35:13.919Z,30.17
2022-12-31T00:35:45.741Z,30.98
2022-12-31T00:36:23.721Z,29.95
2022-12-31T00:36:55.579Z,24.33
2022-12-31T00:37:27.541Z,28.23
2022-12-31T00:37:59.409Z,30.70
2022-12-31T00:38:31.822Z,27.13
2022-12-31T00:39:05.966Z,26.62
2022-12-31T00:39:37.835Z,28.92
2022-12-31T00:40:10.569Z,29.20
2022-12-31T00:40:42.398Z,26.15
2022-12-31T00:41:16.055Z,27.83
2022-12-31T00:41:47.880Z,26.75
2022-12-31T00:42:19.748Z,27.73
2022-12-31T00:42:51.672Z,29.33
2022-12-31T00:43:23.517Z,26.65
2022-12-31T00:43:55.847Z,27.02
2022-12-31T00:44:27.721Z,27.42
2022-12-31T00:44:59.590Z,29.05
2022-12-31T00:45:31.437Z,29.08
2022-12-31T00:46:03.828Z,27.75
2022-12-31T00:47:09.086Z,33.13
2022-12-31T00:47:40.967Z,34.80
2022-12-31T00:48:12.812Z,31.87
2022-12-31T00:48:44.854Z,30.52
2022-12-31T00:49:17.158Z,29.48
2022-12-31T00:49:49.249Z,27.80
2022-12-31T00:50:21.130Z,30.08
2022-12-31T00:50:54.209Z,32.20
2022-12-31T00:51:27.814Z,29.35
2022-12-31T00:51:59.907Z,33.70
2022-12-31T00:52:31.759Z,30.20
2022-12-31T00:53:03.588Z,28.48
2022-12-31T00:53:35.716Z,32.88
2022-12-31T00:54:08.575Z,34.47
2022-12-31T00:54:40.702Z,32.53
2022-12-31T00:55:12.645Z,36.83
2022-12-31T00:55:44.617Z,34.97
2022-12-31T00:56:19.382Z,32.83
2022-12-31T00:56:51.226Z,32.53
2022-12-31T00:57:23.085Z,30.88
2022-12-31T00:57:54.922Z,35.47
2022-12-31T00:58:27.168Z,32.35
2022-12-31T00:59:00.191Z,30.98
2022-12-31T00:59:32.069Z,28.62
2022-12-31T01:00:07.279Z,30.85
2022-12-31T01:00:39.644Z,31.15
2022-12-31T01:01:15.059Z,33.63
2022-12-31T01:01:47.136Z,32.63
2022-12-31T01:02:19.283Z,33.30
2022-12-31T01:02:51.317Z,32.20
2022-12-31T01:03:23.613Z,33.97
2022-12-31T01:03:59.699Z,28.87
2022-12-31T01:04:31.542Z,28.87
2022-12-31T01:05:03.440Z,33.10
2022-12-31T01:05:36.531Z,26.48
2022-12-31T01:06:08.680Z,32.35
2022-12-31T01:06:41.722Z,31.25
2022-12-31T01:07:13.568Z,27.90
2022-12-31T01:07:45.463Z,31.80
2022-12-31T01:08:18.329Z,32.70
2022-12-31T01:08:51.058Z,32.60
2022-12-31T01:09:22.915Z,33.90
2022-12-31T01:09:54.864Z,27.90
2022-12-31T01:10:45.258Z,34.75
2022-12-31T01:11:24.023Z,31.58
2022-12-31T01:11:56.003Z,28.67
2022-12-31T01:12:27.889Z,31.30
2022-12-31T01:12:59.820Z,29.80
2022-12-31T01:13:31.661Z,30.33
2022-12-31T01:14:21.390Z,29.52
2022-12-31T01:14:53.246Z,33.67
2022-12-31T01:15:25.223Z,32.20
2022-12-31T01:15:57.109Z,31.50
2022-12-31T01:16:37.130Z,29.33
2022-12-31T01:17:09.075Z,30.08
2022-12-31T01:17:40.915Z,27.87
2022-12-31T01:18:13.555Z,31.17
2022-12-31T01:18:45.964Z,34.15
2022-12-31T01:19:21.596Z,30.02
2022-12-31T01:19:53.615Z,31.98
2022-12-31T01:20:25.527Z,30.08
2022-12-31T01:21:03.355Z,32.97
2022-12-31T01:21:37.240Z,34.67
2022-12-31T01:22:09.119Z,32.75
2022-12-31T01:22:40.987Z,29.92
2022-12-31T01:23:12.938Z,28.73
2022-12-31T01:23:45.595Z,33.42
2022-12-31T01:24:17.949Z,31.37
2022-12-31T01:24:49.811Z,31.58
2022-12-31T01:25:21.756Z,32.58
2022-12-31T01:25:53.594Z,34.53
2022-12-31T01:26:25.747Z,29.58
2022-12-31T01:26:58.044Z,33.42
2022-12-31T01:27:30.906Z,37.10
2022-12-31T01:28:03.583Z,44.58
2022-12-31T01:28:36.166Z,37.03
2022-12-31T01:29:09.448Z,42.00
2022-12-31T01:29:41.300Z,38.08
2022-12-31T01:30:13.383Z,39.28
2022-12-31T01:30:45.259Z,41.22
2022-12-31T01:31:19.339Z,46.47
2022-12-31T01:31:51.300Z,39.00
2022-12-31T01:32:23.449Z,40.75
2022-12-31T01:32:55.357Z,39.50
2022-12-31T01:33:27.229Z,38.53
2022-12-31T01:33:59.143Z,41.20
2022-12-31T01:34:31.051Z,39.17
2022-12-31T01:35:02.939Z,44.55
2022-12-31T01:35:36.170Z,37.67
2022-12-31T01:36:21.731Z,39.45
2022-12-31T01:36:57.046Z,44.40
2022-12-31T01:37:29.244Z,37.80
2022-12-31T01:38:01.157Z,42.17
2022-12-31T01:38:34.375Z,43.33
2022-12-31T01:39:08.482Z,43.35
2022-12-31T01:39:40.311Z,43.33
2022-12-31T01:40:12.601Z,42.42
2022-12-31T01:40:44.597Z,41.40
2022-12-31T01:41:21.881Z,46.63
2022-12-31T01:41:53.739Z,48.25
2022-12-31T01:42:25.582Z,41.25
2022-12-31T01:42:58.470Z,45.20
2022-12-31T01:44:11.483Z,45.58
2022-12-31T01:44:48.831Z,45.15
2022-12-31T01:45:20.740Z,43.92
2022-12-31T01:45:54.590Z,42.17
2022-12-31T01:46:55.187Z,41.33
2022-12-31T01:47:37.638Z,43.28
2022-12-31T01:48:14.149Z,43.13
2022-12-31T01:48:50.962Z,42.00
2022-12-31T01:49:54.663Z,42.85
2022-12-31T01:50:33.716Z,41.95
2022-12-31T01:51:08.861Z,43.33
2022-12-31T01:51:43.184Z,46.08
2022-12-31T01:52:18.073Z,46.17
2022-12-31T01:52:58.405Z,45.55
2022-12-31T01:53:31.074Z,46.85
2022-12-31T01:54:07.114Z,44.00
2022-12-31T01:54:44.721Z,45.20
2022-12-31T01:55:29.546Z,40.95
2022-12-31T01:56:02.810Z,43.00
2022-12-31T01:56:36.065Z,45.20
2022-12-31T01:57:09.513Z,43.17
2022-12-31T01:57:42.994Z,42.92
2022-12-31T01:58:19.833Z,44.70
2022-12-31T01:58:55.852Z,49.78
2022-12-31T01:59:29.231Z,40.45
2022-12-31T02:00:02.527Z,45.40
2022-12-31T02:00:36.960Z,44.38
2022-12-31T02:01:12.238Z,47.55
2022-12-31T02:01:46.759Z,41.60
2022-12-31T02:02:18.939Z,45.85
2022-12-31T02:02:51.526Z,44.38
2022-12-31T02:03:26.176Z,41.55
2022-12-31T02:04:00.800Z,48.63
2022-12-31T02:04:32.783Z,44.67
2022-12-31T02:05:13.742Z,44.45
2022-12-31T02:05:54.558Z,47.22
2022-12-31T02:06:37.624Z,47.17
2022-12-31T02:07:11.353Z,46.33
2022-12-31T02:07:43.893Z,43.50
2022-12-31T02:08:16.278Z,42.55
2022-12-31T02:08:48.638Z,45.40
2022-12-31T02:09:21.068Z,47.83
2022-12-31T02:09:54.180Z,49.22
2022-12-31T02:10:26.264Z,43.63
2022-12-31T02:10:58.098Z,42.28
2022-12-31T02:11:36.398Z,47.17
2022-12-31T02:12:09.692Z,44.80
2022-12-31T02:12:41.808Z,44.40
2022-12-31T02:13:15.039Z,46.05
2022-12-31T02:13:46.982Z,43.00
2022-12-31T02:14:22.979Z,40.65
2022-12-31T02:14:55.992Z,47.08
2022-12-31T02:15:38.171Z,42.22
2022-12-31T02:16:21.288Z,42.05
2022-12-31T02:17:27.609Z,42.22
2022-12-31T02:18:14.185Z,40.75
2022-12-31T02:19:04.897Z,46.13
2022-12-31T02:19:45.570Z,48.25
2022-12-31T02:20:49.151Z,42.97
2022-12-31T02:22:00.857Z,44.65
2022-12-31T02:22:54.537Z,41.25
2022-12-31T02:23:55.647Z,42.88
2022-12-31T02:24:57.766Z,41.20
2022-12-31T02:25:50.965Z,38.28
2022-12-31T02:26:44.245Z,43.20
2022-12-31T02:28:03.035Z,41.65
2022-12-31T02:28:49.456Z,43.80
2022-12-31T02:29:21.231Z,42.38
2022-12-31T02:29:58.976Z,41.80
2022-12-31T02:30:32.758Z,41.03
2022-12-31T02:31:26.313Z,43.33
2022-12-31T02:32:04.226Z,40.22
2022-12-31T02:32:51.199Z,42.97
2022-12-31T02:33:36.206Z,43.92
2022-12-31T02:34:26.660Z,41.90
2022-12-31T02:35:17.980Z,48.85
2022-12-31T02:35:55.338Z,45.17
2022-12-31T02:36:37.956Z,48.80
2022-12-31T02:37:14.796Z,42.55
2022-12-31T02:37:50.316Z,43.40
2022-12-31T02:38:31.215Z,42.95
2022-12-31T02:39:06.101Z,47.95
2022-12-31T02:39:39.437Z,41.72
2022-12-31T02:40:15.979Z,48.35
2022-12-31T02:40:48.432Z,39.15
2022-12-31T02:41:39.741Z,41.70
2022-12-31T02:42:12.338Z,40.30
2022-12-31T02:42:45.563Z,40.63
2022-12-31T02:43:19.225Z,38.05
2022-12-31T02:43:51.092Z,49.78
2022-12-31T02:44:25.014Z,42.47
2022-12-31T02:44:57.229Z,42.20
2022-12-31T02:45:40.398Z,44.35
2022-12-31T02:46:25.912Z,41.75
2022-12-31T02:47:09.823Z,46.08
2022-12-31T02:48:09.936Z,36.45
2022-12-31T02:49:03.435Z,47.53
2022-12-31T02:49:56.878Z,42.22
2022-12-31T02:50:58.144Z,43.87
2022-12-31T02:52:02.323Z,42.50
2022-12-31T02:52:48.937Z,43.55
2022-12-31T02:53:29.437Z,47.55
2022-12-31T02:54:10.071Z,44.47
2022-12-31T02:54:54.136Z,39.97
2022-12-31T02:55:31.175Z,40.95
2022-12-31T02:56:16.533Z,36.55
2022-12-31T02:57:07.012Z,44.40
2022-12-31T02:57:58.057Z,41.10
2022-12-31T02:59:00.518Z,41.55
2022-12-31T02:59:55.945Z,45.47
2022-12-31T03:00:51.080Z,36.88
2022-12-31T03:02:07.029Z,34.53
2022-12-31T03:02:42.292Z,44.20
2022-12-31T03:03:14.482Z,45.85
2022-12-31T03:03:46.358Z,37.75
2022-12-31T03:04:35.790Z,43.65
2022-12-31T03:05:09.833Z,44.42
2022-12-31T03:05:44.773Z,42.05
2022-12-31T03:06:16.751Z,46.10
2022-12-31T03:06:49.644Z,45.90
2022-12-31T03:07:28.193Z,40.58
2022-12-31T03:08:00.043Z,43.70
2022-12-31T03:08:31.914Z,42.85
2022-12-31T03:09:13.135Z,42.38
2022-12-31T03:09:45.050Z,44.50
2022-12-31T03:10:17.129Z,44.95
2022-12-31T03:10:49.809Z,40.63
2022-12-31T03:11:40.461Z,43.87
2022-12-31T03:12:32.692Z,43.67
2022-12-31T03:13:04.576Z,40.92
2022-12-31T03:13:36.525Z,42.25
2022-12-31T03:14:08.396Z,39.80
2022-12-31T03:14:40.512Z,41.55
2022-12-31T03:15:20.065Z,39.78
2022-12-31T03:15:52.247Z,45.05
2022-12-31T03:16:24.208Z,42.62
2022-12-31T03:16:56.082Z,42.58
2022-12-31T03:17:28.270Z,43.08
2022-12-31T03:18:40.257Z,47.05
2022-12-31T03:20:20.897Z,44.05
2022-12-31T03:21:11.992Z,43.97
2022-12-31T03:22:02.321Z,42.75
2022-12-31T03:22:38.797Z,43.03
2022-12-31T03:23:13.055Z,45.42
2022-12-31T03:23:50.247Z,40.08
2022-12-31T03:24:42.240Z,49.60
2022-12-31T03:25:36.387Z,42.20
2022-12-31T03:26:11.458Z,42.50
2022-12-31T03:26:43.404Z,46.37
2022-12-31T03:27:15.268Z,47.22
2022-12-31T03:27:47.875Z,43.95
2022-12-31T03:28:22.666Z,46.78
2022-12-31T03:28:54.535Z,42.88
2022-12-31T03:29:26.577Z,41.97
2022-12-31T03:29:58.413Z,42.53
2022-12-31T03:30:31.898Z,41.80
2022-12-31T03:31:05.382Z,44.75
2022-12-31T03:31:37.430Z,37.20
2022-12-31T03:32:09.368Z,41.85
2022-12-31T03:32:42.319Z,42.22
2022-12-31T03:33:15.795Z,39.60
2022-12-31T03:33:47.609Z,35.78
2022-12-31T03:34:19.468Z,38.03
2022-12-31T03:34:51.335Z,41.33
2022-12-31T03:35:24.155Z,39.55
2022-12-31T03:35:56.073Z,42.25
2022-12-31T03:36:27.925Z,41.37
2022-12-31T03:36:59.729Z,37.25
2022-12-31T03:37:31.635Z,44.28
2022-12-31T03:38:04.272Z,38.28
2022-12-31T03:38:36.752Z,42.62
2022-12-31T03:39:08.612Z,43.72
2022-12-31T03:39:40.484Z,40.95
2022-12-31T03:40:13.964Z,39.88
2022-12-31T03:40:51.453Z,45.08
2022-12-31T03:41:23.283Z,43.00
2022-12-31T03:41:55.130Z,40.58
2022-12-31T03:42:27.034Z,39.45
2022-12-31T03:42:58.937Z,36.28
2022-12-31T03:43:30.876Z,43.50
2022-12-31T03:44:03.267Z,47.88
2022-12-31T03:44:35.104Z,41.55
2022-12-31T03:45:08.339Z,43.35
2022-12-31T03:45:40.855Z,42.88
2022-12-31T03:46:12.792Z,45.72
2022-12-31T03:46:44.743Z,41.00
2022-12-31T03:47:16.567Z,50.80
2022-12-31T03:47:48.546Z,50.40
2022-12-31T03:48:23.707Z,45.05
2022-12-31T03:48:55.543Z,54.38
2022-12-31T03:49:27.770Z,58.80
2022-12-31T03:49:59.597Z,62.90
2022-12-31T03:50:31.497Z,56.92
2022-12-31T03:51:03.356Z,58.00
2022-12-31T03:51:35.209Z,53.78
2022-12-31T03:52:08.655Z,58.65
2022-12-31T03:52:40.861Z,53.33
2022-12-31T03:53:12.856Z,56.25
2022-12-31T03:53:44.693Z,59.63
2022-12-31T03:54:16.516Z,57.58
2022-12-31T03:54:48.658Z,53.75
2022-12-31T03:55:20.507Z,49.38
2022-12-31T03:55:53.566Z,49.10
2022-12-31T03:56:25.457Z,53.50
2022-12-31T03:57:00.267Z,48.90
2022-12-31T03:57:32.919Z,46.75
2022-12-31T03:58:04.827Z,45.95
2022-12-31T03:58:36.675Z,46.05
2022-12-31T03:59:08.582Z,43.42
2022-12-31T03:59:40.439Z,46.37
2022-12-31T04:00:15.696Z,47.80
2022-12-31T04:00:47.952Z,49.88
2022-12-31T04:01:19.967Z,43.33
2022-12-31T04:01:51.997Z,47.00
2022-12-31T04:02:28.875Z,46.85
2022-12-31T04:03:01.468Z,38.15
2022-12-31T04:03:33.361Z,43.90
2022-12-31T04:04:05.190Z,44.92
2022-12-31T04:04:37.039Z,38.28
2022-12-31T04:05:09.182Z,46.55
2022-12-31T04:05:41.242Z,46.88
2022-12-31T04:06:13.480Z,41.53
2022-12-31T04:06:45.378Z,39.58
2022-12-31T04:07:17.233Z,39.67
2022-12-31T04:07:49.220Z,41.37
2022-12-31T04:08:21.170Z,47.58
2022-12-31T04:08:53.033Z,40.28
2022-12-31T04:09:24.978Z,36.78
2022-12-31T04:09:57.207Z,41.13
2022-12-31T04:10:29.074Z,42.22
2022-12-31T04:11:00.911Z,41.28
2022-12-31T04:11:33.097Z,44.65
2022-12-31T04:12:05.947Z,45.20
2022-12-31T04:12:38.676Z,44.10
2022-12-31T04:13:10.489Z,44.80
2022-12-31T04:13:42.345Z,43.60
2022-12-31T04:14:14.285Z,40.90
2022-12-31T04:14:46.180Z,48.35
2022-12-31T04:15:20.671Z,41.65
2022-12-31T04:15:52.512Z,49.83
2022-12-31T04:16:24.341Z,44.38
2022-12-31T04:16:56.499Z,46.28
2022-12-31T04:17:28.527Z,44.67
2022-12-31T04:18:00.458Z,48.25
2022-12-31T04:18:32.295Z,42.15
2022-12-31T04:19:04.237Z,40.80
2022-12-31T04:19:36.124Z,45.55
2022-12-31T04:20:08.696Z,42.47
2022-12-31T04:20:40.529Z,41.15
2022-12-31T04:21:12.383Z,43.47
2022-12-31T04:21:45.172Z,45.25
2022-12-31T04:22:17.675Z,42.90
2022-12-31T04:22:49.542Z,45.17
2022-12-31T04:23:21.390Z,44.58
2022-12-31T04:23:53.216Z,43.17
2022-12-31T04:24:25.224Z,41.33
2022-12-31T04:24:57.053Z,39.08
2022-12-31T04:25:28.909Z,45.12
2022-12-31T04:26:00.825Z,41.97
2022-12-31T04:26:33.003Z,37.90
2022-12-31T04:27:07.767Z,44.42
2022-12-31T04:27:43.484Z,40.00
2022-12-31T04:28:15.555Z,38.35
2022-12-31T04:28:48.045Z,42.53
2022-12-31T04:29:19.907Z,39.92
2022-12-31T04:29:51.734Z,45.88
2022-12-31T04:30:23.564Z,40.58
2022-12-31T04:30:55.448Z,41.60
2022-12-31T04:31:27.864Z,41.65
2022-12-31T04:31:59.764Z,42.17
2022-12-31T04:32:31.610Z,43.10
2022-12-31T04:33:03.924Z,40.75
2022-12-31T04:33:35.741Z,45.80
2022-12-31T04:34:07.728Z,44.17
2022-12-31T04:34:39.714Z,40.88
2022-12-31T04:35:12.194Z,39.05
2022-12-31T04:35:44.294Z,40.20
2022-12-31T04:36:16.212Z,42.55
2022-12-31T04:36:48.072Z,41.00
2022-12-31T04:37:19.921Z,47.62
2022-12-31T04:37:51.767Z,42.65
2022-12-31T04:38:23.980Z,45.35
2022-12-31T04:38:56.001Z,49.35
2022-12-31T04:39:28.158Z,48.10
2022-12-31T04:40:05.406Z,44.03
2022-12-31T04:40:58.228Z,42.92
2022-12-31T04:41:30.139Z,45.28
2022-12-31T04:42:02.033Z,47.42
2022-12-31T04:42:34.708Z,36.13
2022-12-31T04:43:06.636Z,38.90
2022-12-31T04:43:38.856Z,45.53
2022-12-31T04:44:10.808Z,42.90
2022-12-31T04:44:43.360Z,44.47
2022-12-31T04:45:15.224Z,41.15
2022-12-31T04:45:47.683Z,42.83
2022-12-31T04:46:22.783Z,43.17
2022-12-31T04:46:55.133Z,43.58
2022-12-31T04:47:26.972Z,43.70
2022-12-31T04:47:58.902Z,44.38
2022-12-31T04:48:30.860Z,41.20
2022-12-31T04:49:03.780Z,45.38
2022-12-31T04:49:35.730Z,43.47
2022-12-31T04:50:08.103Z,42.30
2022-12-31T04:50:40.002Z,45.75
2022-12-31T04:51:12.207Z,44.58
2022-12-31T04:51:44.088Z,44.53
2022-12-31T04:52:15.902Z,42.40
2022-12-31T04:52:47.827Z,41.30
2022-12-31T04:53:19.661Z,41.40
2022-12-31T04:53:51.870Z,44.95
2022-12-31T04:54:24.135Z,44.35
2022-12-31T04:54:56.039Z,42.92
2022-12-31T04:55:27.874Z,46.95
2022-12-31T04:55:59.713Z,39.95
2022-12-31T04:56:32.856Z,42.92
2022-12-31T04:57:04.694Z,42.53
2022-12-31T04:57:36.543Z,44.80
2022-12-31T04:58:08.385Z,41.75
2022-12-31T04:58:40.732Z,42.33
2022-12-31T04:59:13.006Z,42.72
2022-12-31T04:59:45.161Z,42.40
2022-12-31T05:00:17.303Z,45.28
2022-12-31T05:00:51.996Z,43.20
2022-12-31T05:01:24.428Z,44.83
2022-12-31T05:01:56.508Z,46.15
2022-12-31T05:02:30.149Z,45.63
2022-12-31T05:03:02.188Z,50.03
2022-12-31T05:03:34.954Z,45.47
2022-12-31T05:04:07.056Z,39.80
2022-12-31T05:04:39.110Z,46.42
2022-12-31T05:05:11.323Z,45.60
2022-12-31T05:05:43.583Z,46.72
2022-12-31T05:06:18.366Z,43.03
2022-12-31T05:06:50.233Z,50.58
2022-12-31T05:07:22.096Z,48.87
2022-12-31T05:07:53.934Z,43.17
2022-12-31T05:08:25.793Z,47.80
2022-12-31T05:08:57.747Z,47.62
2022-12-31T05:09:29.774Z,42.67
2022-12-31T05:10:01.673Z,40.47
2022-12-31T05:10:33.874Z,41.08
2022-12-31T05:11:06.174Z,43.63
2022-12-31T05:11:38.248Z,43.35
2022-12-31T05:12:10.092Z,41.58
2022-12-31T05:12:41.946Z,40.95
2022-12-31T05:13:14.218Z,39.75
2022-12-31T05:13:46.060Z,38.70
2022-12-31T05:14:17.971Z,40.25
2022-12-31T05:14:49.852Z,39.50
2022-12-31T05:15:21.711Z,42.25
2022-12-31T05:15:53.943Z,43.10
2022-12-31T05:16:27.255Z,35.85
2022-12-31T05:17:01.089Z,35.40
2022-12-31T05:17:33.041Z,43.20
2022-12-31T05:18:04.995Z,38.25
2022-12-31T05:18:37.080Z,36.63
2022-12-31T05:19:09.630Z,40.20
2022-12-31T05:19:41.652Z,36.65
2022-12-31T05:20:13.520Z,37.40
2022-12-31T05:20:46.287Z,34.50
2022-12-31T05:21:21.212Z,40.10
2022-12-31T05:22:12.097Z,38.53
2022-12-31T05:23:17.746Z,40.90
2022-12-31T05:23:49.740Z,38.05
2022-12-31T05:24:21.641Z,37.13
2022-12-31T05:24:53.509Z,34.30
2022-12-31T05:25:25.422Z,40.72
2022-12-31T05:25:59.583Z,45.78
2022-12-31T05:26:31.836Z,45.25
2022-12-31T05:27:03.957Z,43.55
2022-12-31T05:27:37.832Z,42.85
2022-12-31T05:28:10.195Z,44.67
2022-12-31T05:28:42.169Z,41.88
2022-12-31T05:29:14.192Z,43.08
2022-12-31T05:29:46.021Z,49.10
2022-12-31T05:30:18.789Z,49.67
2022-12-31T05:30:51.265Z,40.20
2022-12-31T05:31:23.318Z,40.58
2022-12-31T05:31:55.503Z,43.85
2022-12-31T05:32:27.548Z,41.17
2022-12-31T05:32:59.435Z,40.80
2022-12-31T05:33:31.467Z,38.33
2022-12-31T05:34:03.326Z,36.25
2022-12-31T05:34:35.160Z,44.05
2022-12-31T05:35:07.706Z,43.10
2022-12-31T05:35:39.560Z,39.95
2022-12-31T05:36:11.475Z,37.15
2022-12-31T05:36:43.330Z,37.65
2022-12-31T05:37:15.461Z,42.47
2022-12-31T05:37:47.323Z,35.58
2022-12-31T05:38:19.147Z,38.03
2022-12-31T05:38:51.011Z,32.10
2022-12-31T05:39:22.886Z,55.90
2022-12-31T05:39:56.732Z,42.38
2022-12-31T05:40:28.993Z,43.78
2022-12-31T05:41:05.936Z,39.67
2022-12-31T05:41:37.749Z,41.90
2022-12-31T05:42:09.590Z,45.75
2022-12-31T05:42:41.744Z,35.75
2022-12-31T05:43:13.612Z,39.45
2022-12-31T05:43:45.445Z,39.55
2022-12-31T05:44:17.284Z,43.55
2022-12-31T05:44:49.199Z,44.85
2022-12-31T05:45:26.812Z,40.12
2022-12-31T05:46:03.371Z,44.08
2022-12-31T05:46:35.227Z,40.00
2022-12-31T05:47:07.081Z,44.60
2022-12-31T05:47:40.437Z,42.58
2022-12-31T05:48:12.611Z,40.05
2022-12-31T05:48:44.479Z,35.60
2022-12-31T05:49:16.338Z,45.53
2022-12-31T05:49:48.297Z,37.55
2022-12-31T05:50:20.193Z,40.65
2022-12-31T05:50:59.263Z,39.25
2022-12-31T05:51:31.142Z,39.97
2022-12-31T05:52:03.005Z,41.17
2022-12-31T05:52:34.890Z,38.47
2022-12-31T05:53:06.740Z,45.90
2022-12-31T05:53:38.885Z,41.75
2022-12-31T05:54:10.767Z,43.40
2022-12-31T05:54:42.672Z,45.25
2022-12-31T05:55:14.625Z,47.60
2022-12-31T05:55:47.808Z,40.97
2022-12-31T05:56:20.625Z,43.65
2022-12-31T05:56:52.643Z,38.72
2022-12-31T05:57:24.558Z,44.28
2022-12-31T05:57:56.749Z,39.90
2022-12-31T05:58:28.701Z,42.17
2022-12-31T05:59:00.869Z,43.35
2022-12-31T05:59:32.887Z,42.15
2022-12-31T06:00:07.113Z,45.95
2022-12-31T06:00:46.158Z,44.58
2022-12-31T06:01:18.427Z,50.85
2022-12-31T06:01:50.413Z,45.85
2022-12-31T06:02:23.008Z,43.92
2022-12-31T06:02:54.921Z,50.72
2022-12-31T06:03:26.894Z,57.03
2022-12-31T06:03:58.908Z,67.32
2022-12-31T06:04:30.865Z,58.80
2022-12-31T06:05:02.759Z,53.10
2022-12-31T06:05:34.680Z,61.80
2022-12-31T06:06:06.785Z,66.15
2022-12-31T06:06:38.999Z,70.78
2022-12-31T06:07:10.816Z,67.37
2022-12-31T06:07:42.732Z,66.15
2022-12-31T06:08:14.567Z,65.35
2022-12-31T06:08:50.595Z,72.72
2022-12-31T06:09:22.706Z,58.85
2022-12-31T06:09:54.578Z,57.80
2022-12-31T06:10:26.457Z,53.22
2022-12-31T06:10:58.390Z,52.75
2022-12-31T06:11:30.595Z,66.18
2022-12-31T06:12:02.879Z,72.07
2022-12-31T06:12:35.476Z,81.12
2022-12-31T06:13:08.488Z,85.50
2022-12-31T06:13:41.402Z,77.78
2022-12-31T06:14:13.665Z,80.72
2022-12-31T06:14:46.036Z,84.40
2022-12-31T06:15:18.060Z,75.00
2022-12-31T06:15:50.053Z,69.62
2022-12-31T06:16:22.033Z,63.80
2022-12-31T06:16:53.928Z,61.65
2022-12-31T06:17:26.093Z,59.28
2022-12-31T06:17:57.933Z,71.12
2022-12-31T06:18:29.790Z,65.53
2022-12-31T06:19:02.468Z,63.13
2022-12-31T06:19:34.434Z,63.70
2022-12-31T06:20:12.418Z,57.88
2022-12-31T06:20:45.038Z,59.85
2022-12-31T06:21:18.339Z,59.92
2022-12-31T06:21:50.749Z,60.10
2022-12-31T06:22:22.831Z,59.20
2022-12-31T06:22:54.942Z,55.08
2022-12-31T06:23:26.966Z,54.72
2022-12-31T06:23:59.027Z,54.97
2022-12-31T06:24:30.984Z,48.20
2022-12-31T06:25:03.069Z,42.42
2022-12-31T06:25:37.000Z,51.78
2022-12-31T06:26:09.174Z,55.25
2022-12-31T06:26:41.091Z,52.33
2022-12-31T06:27:12.964Z,49.78
2022-12-31T06:27:44.818Z,51.15
2022-12-31T06:28:20.421Z,47.78
2022-12-31T06:28:52.668Z,46.40
2022-12-31T06:29:24.584Z,43.40
2022-12-31T06:29:56.495Z,44.45
2022-12-31T06:30:28.401Z,44.25
2022-12-31T06:31:01.178Z,45.25
2022-12-31T06:31:33.324Z,43.97
2022-12-31T06:32:05.655Z,43.13
2022-12-31T06:32:37.566Z,44.75
2022-12-31T06:33:09.468Z,43.47
2022-12-31T06:33:42.079Z,45.83
2022-12-31T06:34:13.953Z,43.05
2022-12-31T06:34:45.832Z,38.00
2022-12-31T06:35:17.794Z,47.85
2022-12-31T06:35:49.669Z,39.95
2022-12-31T06:36:22.388Z,45.50
2022-12-31T06:36:54.276Z,42.28
2022-12-31T06:37:26.139Z,40.78
2022-12-31T06:37:58.033Z,41.58
2022-12-31T06:38:32.742Z,39.38
2022-12-31T06:39:05.222Z,36.95
2022-12-31T06:39:37.103Z,43.33
2022-12-31T06:40:09.629Z,44.08
2022-12-31T06:40:41.467Z,39.80
2022-12-31T06:41:15.771Z,38.03
2022-12-31T06:41:47.636Z,36.72
2022-12-31T06:42:19.499Z,37.20
2022-12-31T06:42:56.055Z,39.60
2022-12-31T06:43:32.189Z,38.97
2022-12-31T06:44:04.470Z,42.30
2022-12-31T06:44:36.304Z,39.47
2022-12-31T06:45:08.640Z,42.80
2022-12-31T06:45:40.577Z,42.15
2022-12-31T06:46:15.332Z,33.42
2022-12-31T06:46:47.375Z,36.85
2022-12-31T06:47:21.089Z,35.70
2022-12-31T06:47:53.047Z,36.17
2022-12-31T06:48:24.888Z,29.55
2022-12-31T06:48:56.814Z,31.60
2022-12-31T06:49:29.133Z,30.05
2022-12-31T06:50:01.009Z,32.97
2022-12-31T06:50:33.003Z,34.55
2022-12-31T06:51:09.550Z,34.75
2022-12-31T06:51:46.205Z,33.60
2022-12-31T06:52:18.151Z,35.33
2022-12-31T06:52:50.001Z,32.53
2022-12-31T06:53:21.983Z,29.27
2022-12-31T06:53:53.943Z,34.35
2022-12-31T06:54:25.775Z,44.30
2022-12-31T06:54:58.425Z,62.65
2022-12-31T06:55:30.922Z,67.75
2022-12-31T06:56:07.251Z,62.38
2022-12-31T06:56:39.741Z,57.03
2022-12-31T06:57:12.216Z,61.58
2022-12-31T06:57:47.738Z,61.80
2022-12-31T06:58:19.981Z,55.53
2022-12-31T06:58:52.613Z,58.17
2022-12-31T06:59:27.983Z,56.00
2022-12-31T07:00:00.415Z,55.08
2022-12-31T07:00:32.600Z,56.17
2022-12-31T07:01:29.799Z,51.28
2022-12-31T07:02:01.910Z,56.83
2022-12-31T07:02:45.781Z,56.47
2022-12-31T07:03:44.828Z,59.92
2022-12-31T07:04:47.569Z,58.58
2022-12-31T07:05:22.682Z,57.70
2022-12-31T07:06:13.666Z,53.75
2022-12-31T07:07:14.001Z,51.20
2022-12-31T07:07:51.676Z,52.80
2022-12-31T07:08:48.521Z,47.13
2022-12-31T07:09:44.469Z,42.55
2022-12-31T07:10:41.092Z,38.80
2022-12-31T07:11:26.530Z,37.20
2022-12-31T07:12:15.311Z,31.10
2022-12-31T07:13:14.382Z,33.15
2022-12-31T07:14:03.163Z,31.85
2022-12-31T07:14:34.966Z,30.23
2022-12-31T07:15:07.098Z,30.37
2022-12-31T07:15:47.957Z,31.33
2022-12-31T07:16:28.792Z,28.40
2022-12-31T07:17:20.887Z,30.88
2022-12-31T07:18:17.528Z,32.40
2022-12-31T07:18:57.649Z,34.28
2022-12-31T07:19:29.476Z,28.25
2022-12-31T07:20:09.985Z,33.17
2022-12-31T07:20:42.264Z,34.25
2022-12-31T07:21:18.274Z,34.83
2022-12-31T07:21:53.545Z,31.52
2022-12-31T07:22:25.643Z,35.00
2022-12-31T07:22:57.815Z,31.85
2022-12-31T07:23:29.848Z,29.60
2022-12-31T07:24:02.067Z,30.15
2022-12-31T07:24:34.211Z,33.92
2022-12-31T07:25:07.224Z,30.70
2022-12-31T07:25:44.513Z,31.27
2022-12-31T07:26:30.857Z,32.30
2022-12-31T07:27:39.937Z,29.65
2022-12-31T07:28:34.386Z,30.20
2022-12-31T07:29:16.969Z,27.83
2022-12-31T07:30:11.853Z,27.40
2022-12-31T07:30:56.779Z,32.13
2022-12-31T07:31:47.599Z,25.55
2022-12-31T07:32:32.062Z,32.17
2022-12-31T07:33:07.435Z,28.42